sensor_id;sensor_type;location;lat;lon;timestamp;pressure;altitude;pressure_sealevel;temperature;humidity
50226;BME280;36113;50.742;6.432;2023-04-29T00:00:49;112741.81;;;-145.50;96.85
50226;BME280;36113;50.742;6.432;2023-04-29T00:03:14;112741.81;;;-145.50;96.50
50226;BME280;36113;50.742;6.432;2023-04-29T00:05:39;112741.81;;;-145.50;95.64
50226;BME280;36113;50.742;6.432;2023-04-29T00:08:05;112741.81;;;-145.50;95.30
50226;BME280;36113;50.742;6.432;2023-04-29T00:10:30;112741.81;;;-145.50;95.32
50226;BME280;36113;50.742;6.432;2023-04-29T00:12:55;112741.81;;;-145.50;95.37
50226;BME280;36113;50.742;6.432;2023-04-29T00:15:21;112741.81;;;-145.50;95.75
50226;BME280;36113;50.742;6.432;2023-04-29T00:17:46;112741.81;;;-145.50;95.69
50226;BME280;36113;50.742;6.432;2023-04-29T00:20:12;112741.81;;;-145.50;96.00
50226;BME280;36113;50.742;6.432;2023-04-29T00:22:37;112741.81;;;-145.50;96.04
50226;BME280;36113;50.742;6.432;2023-04-29T00:25:04;112741.81;;;-145.50;96.20
50226;BME280;36113;50.742;6.432;2023-04-29T00:27:29;112741.81;;;-145.50;96.85
50226;BME280;36113;50.742;6.432;2023-04-29T00:29:55;112741.81;;;-145.50;97.32
50226;BME280;36113;50.742;6.432;2023-04-29T00:32:21;112741.81;;;-145.50;96.68
50226;BME280;36113;50.742;6.432;2023-04-29T00:34:47;112741.81;;;-145.50;96.51
50226;BME280;36113;50.742;6.432;2023-04-29T00:37:12;112741.81;;;-145.50;96.08
50226;BME280;36113;50.742;6.432;2023-04-29T00:39:37;112741.81;;;-145.50;95.54
50226;BME280;36113;50.742;6.432;2023-04-29T00:42:03;112741.81;;;-145.50;95.02
50226;BME280;36113;50.742;6.432;2023-04-29T00:44:28;112741.81;;;-145.50;95.13
50226;BME280;36113;50.742;6.432;2023-04-29T00:46:54;112741.81;;;-145.50;94.68
50226;BME280;36113;50.742;6.432;2023-04-29T00:49:20;112741.81;;;-145.50;94.90
50226;BME280;36113;50.742;6.432;2023-04-29T00:51:45;112741.81;;;-145.50;94.54
50226;BME280;36113;50.742;6.432;2023-04-29T00:54:11;112741.81;;;-145.50;94.21
50226;BME280;36113;50.742;6.432;2023-04-29T00:56:38;112741.81;;;-145.50;94.14
50226;BME280;36113;50.742;6.432;2023-04-29T00:59:05;112741.81;;;-145.50;94.27
50226;BME280;36113;50.742;6.432;2023-04-29T01:01:33;112741.81;;;-145.50;94.42
50226;BME280;36113;50.742;6.432;2023-04-29T01:03:59;112741.81;;;-145.50;94.53
50226;BME280;36113;50.742;6.432;2023-04-29T01:12:33;112741.81;;;-145.50;95.05
50226;BME280;36113;50.742;6.432;2023-04-29T01:15:04;112741.81;;;-145.50;95.30
50226;BME280;36113;50.742;6.432;2023-04-29T01:17:38;112741.81;;;-145.50;95.03
50226;BME280;36113;50.742;6.432;2023-04-29T01:20:25;112741.81;;;-145.50;94.96
50226;BME280;36113;50.742;6.432;2023-04-29T01:22:52;112741.81;;;-145.50;94.88
50226;BME280;36113;50.742;6.432;2023-04-29T01:25:18;112741.81;;;-145.50;95.10
50226;BME280;36113;50.742;6.432;2023-04-29T01:30:55;112741.81;;;-145.50;95.08
50226;BME280;36113;50.742;6.432;2023-04-29T01:33:57;112741.81;;;-145.50;95.45
50226;BME280;36113;50.742;6.432;2023-04-29T01:39:20;112741.81;;;-145.50;95.50
50226;BME280;36113;50.742;6.432;2023-04-29T01:42:09;112741.81;;;-145.50;95.27
50226;BME280;36113;50.742;6.432;2023-04-29T01:44:37;112741.81;;;-145.50;95.16
50226;BME280;36113;50.742;6.432;2023-04-29T01:47:02;112741.81;;;-145.50;95.20
50226;BME280;36113;50.742;6.432;2023-04-29T01:49:28;112741.81;;;-145.50;95.24
50226;BME280;36113;50.742;6.432;2023-04-29T01:51:53;112741.81;;;-145.50;95.31
50226;BME280;36113;50.742;6.432;2023-04-29T01:54:19;112741.81;;;-145.50;95.48
50226;BME280;36113;50.742;6.432;2023-04-29T01:56:46;112741.81;;;-145.50;95.35
50226;BME280;36113;50.742;6.432;2023-04-29T01:59:11;112741.81;;;-145.50;95.71
50226;BME280;36113;50.742;6.432;2023-04-29T02:01:36;112741.81;;;-145.50;95.96
50226;BME280;36113;50.742;6.432;2023-04-29T02:04:02;112741.81;;;-145.50;95.65
50226;BME280;36113;50.742;6.432;2023-04-29T02:06:28;112741.81;;;-145.50;95.87
50226;BME280;36113;50.742;6.432;2023-04-29T02:08:56;112741.81;;;-145.50;95.59
50226;BME280;36113;50.742;6.432;2023-04-29T02:11:21;112741.81;;;-145.50;95.42
50226;BME280;36113;50.742;6.432;2023-04-29T02:13:46;112741.81;;;-145.50;94.68
50226;BME280;36113;50.742;6.432;2023-04-29T02:16:13;112741.81;;;-145.50;94.66
50226;BME280;36113;50.742;6.432;2023-04-29T02:18:38;112741.81;;;-145.50;94.68
50226;BME280;36113;50.742;6.432;2023-04-29T02:21:05;112741.81;;;-145.50;94.61
50226;BME280;36113;50.742;6.432;2023-04-29T02:23:31;112741.81;;;-145.50;94.21
50226;BME280;36113;50.742;6.432;2023-04-29T02:25:57;112741.81;;;-145.50;94.16
50226;BME280;36113;50.742;6.432;2023-04-29T02:28:22;112741.81;;;-145.50;94.31
50226;BME280;36113;50.742;6.432;2023-04-29T02:30:48;112741.81;;;-145.50;94.44
50226;BME280;36113;50.742;6.432;2023-04-29T02:33:14;112741.81;;;-145.50;94.87
50226;BME280;36113;50.742;6.432;2023-04-29T02:35:39;112741.81;;;-145.50;94.93
50226;BME280;36113;50.742;6.432;2023-04-29T02:38:04;112741.81;;;-145.50;94.93
50226;BME280;36113;50.742;6.432;2023-04-29T02:40:30;112741.81;;;-145.50;95.11
50226;BME280;36113;50.742;6.432;2023-04-29T02:42:55;112741.81;;;-145.50;94.85
50226;BME280;36113;50.742;6.432;2023-04-29T02:45:20;112741.81;;;-145.50;94.57
50226;BME280;36113;50.742;6.432;2023-04-29T02:47:46;112741.81;;;-145.50;94.34
50226;BME280;36113;50.742;6.432;2023-04-29T02:50:11;112741.81;;;-145.50;94.31
50226;BME280;36113;50.742;6.432;2023-04-29T02:52:37;112741.81;;;-145.50;94.52
50226;BME280;36113;50.742;6.432;2023-04-29T02:55:02;112741.81;;;-145.50;95.12
50226;BME280;36113;50.742;6.432;2023-04-29T02:57:28;112741.81;;;-145.50;95.34
50226;BME280;36113;50.742;6.432;2023-04-29T02:59:56;112741.81;;;-145.50;95.61
50226;BME280;36113;50.742;6.432;2023-04-29T03:02:22;112741.81;;;-145.50;95.86
50226;BME280;36113;50.742;6.432;2023-04-29T03:04:47;112741.81;;;-145.50;95.77
50226;BME280;36113;50.742;6.432;2023-04-29T03:07:13;112741.81;;;-145.50;96.05
50226;BME280;36113;50.742;6.432;2023-04-29T03:09:40;112741.81;;;-145.50;95.96
50226;BME280;36113;50.742;6.432;2023-04-29T03:12:06;112741.81;;;-145.50;96.04
50226;BME280;36113;50.742;6.432;2023-04-29T03:14:31;112741.81;;;-145.50;96.49
50226;BME280;36113;50.742;6.432;2023-04-29T03:16:56;112741.81;;;-145.50;96.78
50226;BME280;36113;50.742;6.432;2023-04-29T03:19:22;112741.81;;;-145.50;96.98
50226;BME280;36113;50.742;6.432;2023-04-29T03:21:47;112741.81;;;-145.50;97.44
50226;BME280;36113;50.742;6.432;2023-04-29T03:24:12;112741.81;;;-145.50;97.74
50226;BME280;36113;50.742;6.432;2023-04-29T03:26:38;112741.81;;;-145.50;97.76
50226;BME280;36113;50.742;6.432;2023-04-29T03:29:04;112741.81;;;-145.50;97.74
50226;BME280;36113;50.742;6.432;2023-04-29T03:31:29;112741.81;;;-145.50;98.11
50226;BME280;36113;50.742;6.432;2023-04-29T03:33:55;112741.81;;;-145.50;98.35
50226;BME280;36113;50.742;6.432;2023-04-29T03:36:20;112741.81;;;-145.50;98.57
50226;BME280;36113;50.742;6.432;2023-04-29T03:38:45;112741.81;;;-145.50;98.53
50226;BME280;36113;50.742;6.432;2023-04-29T03:41:11;112741.81;;;-145.50;98.16
50226;BME280;36113;50.742;6.432;2023-04-29T03:43:36;112741.81;;;-145.50;97.83
50226;BME280;36113;50.742;6.432;2023-04-29T03:46:01;112741.81;;;-145.50;97.52
50226;BME280;36113;50.742;6.432;2023-04-29T03:48:27;112741.81;;;-145.50;97.54
50226;BME280;36113;50.742;6.432;2023-04-29T03:50:53;112741.81;;;-145.50;97.48
50226;BME280;36113;50.742;6.432;2023-04-29T03:53:19;112741.81;;;-145.50;98.07
50226;BME280;36113;50.742;6.432;2023-04-29T03:55:45;112741.81;;;-145.50;98.22
50226;BME280;36113;50.742;6.432;2023-04-29T03:58:12;112741.81;;;-145.50;98.63
50226;BME280;36113;50.742;6.432;2023-04-29T04:00:38;112741.81;;;-145.50;99.45
50226;BME280;36113;50.742;6.432;2023-04-29T04:03:04;112741.81;;;-145.50;99.75
50226;BME280;36113;50.742;6.432;2023-04-29T04:05:29;112741.81;;;-145.50;100.00
50226;BME280;36113;50.742;6.432;2023-04-29T04:07:54;112741.81;;;-145.50;100.00
50226;BME280;36113;50.742;6.432;2023-04-29T04:10:20;112741.81;;;-145.50;99.95
50226;BME280;36113;50.742;6.432;2023-04-29T04:12:46;112741.81;;;-145.50;100.00
50226;BME280;36113;50.742;6.432;2023-04-29T04:15:12;112741.81;;;-145.50;99.75
50226;BME280;36113;50.742;6.432;2023-04-29T04:17:37;112741.81;;;-145.50;99.61
50226;BME280;36113;50.742;6.432;2023-04-29T04:20:03;112741.81;;;-145.50;99.66
50226;BME280;36113;50.742;6.432;2023-04-29T04:22:29;112741.81;;;-145.50;99.91
50226;BME280;36113;50.742;6.432;2023-04-29T04:24:54;112741.81;;;-145.50;100.00
50226;BME280;36113;50.742;6.432;2023-04-29T04:27:20;112741.81;;;-145.50;100.00
50226;BME280;36113;50.742;6.432;2023-04-29T04:29:45;112741.81;;;-145.50;100.00
50226;BME280;36113;50.742;6.432;2023-04-29T04:32:11;112741.81;;;-145.50;100.00
50226;BME280;36113;50.742;6.432;2023-04-29T04:34:36;112741.81;;;-145.50;100.00
50226;BME280;36113;50.742;6.432;2023-04-29T04:37:03;112741.81;;;-145.50;100.00
50226;BME280;36113;50.742;6.432;2023-04-29T04:39:29;112741.81;;;-145.50;100.00
50226;BME280;36113;50.742;6.432;2023-04-29T04:41:54;112741.81;;;-145.50;100.00
50226;BME280;36113;50.742;6.432;2023-04-29T04:44:19;112741.81;;;-145.50;100.00
50226;BME280;36113;50.742;6.432;2023-04-29T04:46:45;112741.81;;;-145.50;100.00
50226;BME280;36113;50.742;6.432;2023-04-29T04:49:10;112741.81;;;-145.50;100.00
50226;BME280;36113;50.742;6.432;2023-04-29T04:51:36;112741.81;;;-145.50;100.00
50226;BME280;36113;50.742;6.432;2023-04-29T04:54:01;112741.81;;;-145.50;100.00
50226;BME280;36113;50.742;6.432;2023-04-29T04:56:26;112741.81;;;-145.50;100.00
50226;BME280;36113;50.742;6.432;2023-04-29T04:58:53;112741.81;;;-145.50;100.00
50226;BME280;36113;50.742;6.432;2023-04-29T05:01:18;112741.81;;;-145.50;100.00
50226;BME280;36113;50.742;6.432;2023-04-29T05:03:44;112741.81;;;-145.50;100.00
50226;BME280;36113;50.742;6.432;2023-04-29T05:06:09;112741.81;;;-145.50;100.00
50226;BME280;36113;50.742;6.432;2023-04-29T05:08:34;112741.81;;;-145.50;100.00
50226;BME280;36113;50.742;6.432;2023-04-29T05:10:59;112741.81;;;-145.50;100.00
50226;BME280;36113;50.742;6.432;2023-04-29T05:13:25;112741.81;;;-145.50;100.00
50226;BME280;36113;50.742;6.432;2023-04-29T05:15:50;112741.81;;;-145.50;100.00
50226;BME280;36113;50.742;6.432;2023-04-29T05:18:16;112741.81;;;-145.50;100.00
50226;BME280;36113;50.742;6.432;2023-04-29T05:20:41;112741.81;;;-145.50;100.00
50226;BME280;36113;50.742;6.432;2023-04-29T05:23:06;112741.81;;;-145.50;100.00
50226;BME280;36113;50.742;6.432;2023-04-29T05:25:32;112741.81;;;-145.50;100.00
50226;BME280;36113;50.742;6.432;2023-04-29T05:27:58;112741.81;;;-145.50;100.00
50226;BME280;36113;50.742;6.432;2023-04-29T05:30:24;112741.81;;;-145.50;100.00
50226;BME280;36113;50.742;6.432;2023-04-29T05:32:49;112741.81;;;-145.50;100.00
50226;BME280;36113;50.742;6.432;2023-04-29T05:35:15;112741.81;;;-145.50;100.00
50226;BME280;36113;50.742;6.432;2023-04-29T05:37:40;112741.81;;;-145.50;100.00
50226;BME280;36113;50.742;6.432;2023-04-29T05:40:07;112741.81;;;-145.50;100.00
50226;BME280;36113;50.742;6.432;2023-04-29T05:42:32;112741.81;;;-145.50;100.00
50226;BME280;36113;50.742;6.432;2023-04-29T05:44:57;112741.81;;;-145.50;100.00
50226;BME280;36113;50.742;6.432;2023-04-29T05:47:23;112741.81;;;-145.50;100.00
50226;BME280;36113;50.742;6.432;2023-04-29T05:49:48;112741.81;;;-145.50;100.00
50226;BME280;36113;50.742;6.432;2023-04-29T05:52:14;112741.81;;;-145.50;100.00
50226;BME280;36113;50.742;6.432;2023-04-29T05:54:39;112741.81;;;-145.50;100.00
50226;BME280;36113;50.742;6.432;2023-04-29T05:57:05;112741.81;;;-145.50;100.00
50226;BME280;36113;50.742;6.432;2023-04-29T05:59:34;112741.81;;;-145.50;100.00
50226;BME280;36113;50.742;6.432;2023-04-29T06:02:01;112741.81;;;-145.50;100.00
50226;BME280;36113;50.742;6.432;2023-04-29T06:04:27;112741.81;;;-145.50;100.00
50226;BME280;36113;50.742;6.432;2023-04-29T06:06:53;112741.81;;;-145.50;100.00
50226;BME280;36113;50.742;6.432;2023-04-29T06:09:22;112741.81;;;-145.50;100.00
50226;BME280;36113;50.742;6.432;2023-04-29T06:12:00;112741.81;;;-145.50;100.00
50226;BME280;36113;50.742;6.432;2023-04-29T06:14:45;112741.81;;;-145.50;100.00
50226;BME280;36113;50.742;6.432;2023-04-29T06:17:33;112741.81;;;-145.50;100.00
50226;BME280;36113;50.742;6.432;2023-04-29T06:20:08;112741.81;;;-145.50;100.00
50226;BME280;36113;50.742;6.432;2023-04-29T06:22:42;112741.81;;;-145.50;100.00
50226;BME280;36113;50.742;6.432;2023-04-29T06:25:10;112741.81;;;-145.50;100.00
50226;BME280;36113;50.742;6.432;2023-04-29T06:27:44;112741.81;;;-145.50;100.00
50226;BME280;36113;50.742;6.432;2023-04-29T06:30:10;112741.81;;;-145.50;100.00
50226;BME280;36113;50.742;6.432;2023-04-29T06:32:37;112741.81;;;-145.50;100.00
50226;BME280;36113;50.742;6.432;2023-04-29T06:35:03;112741.81;;;-145.50;100.00
50226;BME280;36113;50.742;6.432;2023-04-29T06:37:28;112741.81;;;-145.50;100.00
50226;BME280;36113;50.742;6.432;2023-04-29T06:39:53;112741.81;;;-145.50;100.00
50226;BME280;36113;50.742;6.432;2023-04-29T06:42:19;112741.81;;;-145.50;100.00
50226;BME280;36113;50.742;6.432;2023-04-29T06:44:44;112741.81;;;-145.50;100.00
50226;BME280;36113;50.742;6.432;2023-04-29T06:47:10;112741.81;;;-145.50;100.00
50226;BME280;36113;50.742;6.432;2023-04-29T06:49:35;112741.81;;;-145.50;100.00
50226;BME280;36113;50.742;6.432;2023-04-29T06:52:00;112741.81;;;-145.50;100.00
50226;BME280;36113;50.742;6.432;2023-04-29T06:54:27;112741.81;;;-145.50;100.00
50226;BME280;36113;50.742;6.432;2023-04-29T06:56:52;112741.81;;;-145.50;100.00
50226;BME280;36113;50.742;6.432;2023-04-29T06:59:18;112741.81;;;-145.50;100.00
50226;BME280;36113;50.742;6.432;2023-04-29T07:01:43;112741.81;;;-145.50;100.00
50226;BME280;36113;50.742;6.432;2023-04-29T07:04:09;112741.81;;;-145.50;100.00
50226;BME280;36113;50.742;6.432;2023-04-29T07:06:34;112741.81;;;-145.50;100.00
50226;BME280;36113;50.742;6.432;2023-04-29T07:08:59;112741.81;;;-145.50;100.00
50226;BME280;36113;50.742;6.432;2023-04-29T07:11:26;112741.81;;;-145.50;100.00
50226;BME280;36113;50.742;6.432;2023-04-29T07:13:51;112741.81;;;-145.50;100.00
50226;BME280;36113;50.742;6.432;2023-04-29T07:16:17;112741.81;;;-145.50;100.00
50226;BME280;36113;50.742;6.432;2023-04-29T07:18:44;112741.81;;;-145.50;100.00
50226;BME280;36113;50.742;6.432;2023-04-29T07:21:10;112741.81;;;-145.50;100.00
50226;BME280;36113;50.742;6.432;2023-04-29T07:23:35;112741.81;;;-145.50;100.00
50226;BME280;36113;50.742;6.432;2023-04-29T07:26:14;112741.81;;;-145.50;100.00
50226;BME280;36113;50.742;6.432;2023-04-29T07:28:41;112741.81;;;-145.50;100.00
50226;BME280;36113;50.742;6.432;2023-04-29T07:31:07;112741.81;;;-145.50;100.00
50226;BME280;36113;50.742;6.432;2023-04-29T07:33:34;112741.81;;;-145.50;100.00
50226;BME280;36113;50.742;6.432;2023-04-29T07:36:00;112741.81;;;-145.50;100.00
50226;BME280;36113;50.742;6.432;2023-04-29T07:38:25;112741.81;;;-145.50;100.00
50226;BME280;36113;50.742;6.432;2023-04-29T07:40:50;112741.81;;;-145.50;100.00
50226;BME280;36113;50.742;6.432;2023-04-29T07:43:16;112741.81;;;-145.50;100.00
50226;BME280;36113;50.742;6.432;2023-04-29T07:45:41;112741.81;;;-145.50;100.00
50226;BME280;36113;50.742;6.432;2023-04-29T07:48:07;112741.81;;;-145.50;100.00
50226;BME280;36113;50.742;6.432;2023-04-29T07:50:35;112741.81;;;-145.50;100.00
50226;BME280;36113;50.742;6.432;2023-04-29T07:53:03;112741.81;;;-145.50;100.00
50226;BME280;36113;50.742;6.432;2023-04-29T07:55:29;112741.81;;;-145.50;100.00
50226;BME280;36113;50.742;6.432;2023-04-29T07:57:55;112741.81;;;-145.50;100.00
50226;BME280;36113;50.742;6.432;2023-04-29T08:00:22;112741.81;;;-145.50;100.00
50226;BME280;36113;50.742;6.432;2023-04-29T08:02:54;112741.81;;;-145.50;100.00
50226;BME280;36113;50.742;6.432;2023-04-29T08:05:21;112741.81;;;-145.50;100.00
50226;BME280;36113;50.742;6.432;2023-04-29T08:07:47;112741.81;;;-145.50;100.00
50226;BME280;36113;50.742;6.432;2023-04-29T08:10:13;112741.81;;;-145.50;100.00
50226;BME280;36113;50.742;6.432;2023-04-29T08:12:38;112741.81;;;-145.50;100.00
50226;BME280;36113;50.742;6.432;2023-04-29T08:15:04;112741.81;;;-145.50;100.00
50226;BME280;36113;50.742;6.432;2023-04-29T08:17:29;112741.81;;;-145.50;100.00
50226;BME280;36113;50.742;6.432;2023-04-29T08:19:55;112741.81;;;-145.50;100.00
50226;BME280;36113;50.742;6.432;2023-04-29T08:22:20;112741.81;;;-145.50;100.00
50226;BME280;36113;50.742;6.432;2023-04-29T08:24:46;112741.81;;;-145.50;100.00
50226;BME280;36113;50.742;6.432;2023-04-29T08:27:12;112741.81;;;-145.50;100.00
50226;BME280;36113;50.742;6.432;2023-04-29T08:29:39;112741.81;;;-145.50;100.00
50226;BME280;36113;50.742;6.432;2023-04-29T08:32:04;112741.81;;;-145.50;100.00
50226;BME280;36113;50.742;6.432;2023-04-29T08:34:30;112741.81;;;-145.50;100.00
50226;BME280;36113;50.742;6.432;2023-04-29T08:36:56;112741.81;;;-145.50;100.00
50226;BME280;36113;50.742;6.432;2023-04-29T08:39:21;112741.81;;;-145.50;100.00
50226;BME280;36113;50.742;6.432;2023-04-29T08:41:47;112741.81;;;-145.50;100.00
50226;BME280;36113;50.742;6.432;2023-04-29T08:44:15;112741.81;;;-145.50;100.00
50226;BME280;36113;50.742;6.432;2023-04-29T08:46:42;112741.81;;;-145.50;100.00
50226;BME280;36113;50.742;6.432;2023-04-29T08:49:08;112741.81;;;-145.50;100.00
50226;BME280;36113;50.742;6.432;2023-04-29T08:51:34;112741.81;;;-145.50;100.00
50226;BME280;36113;50.742;6.432;2023-04-29T08:53:59;112741.81;;;-145.50;100.00
50226;BME280;36113;50.742;6.432;2023-04-29T08:56:24;112741.81;;;-145.50;100.00
50226;BME280;36113;50.742;6.432;2023-04-29T08:58:52;112741.81;;;-145.50;100.00
50226;BME280;36113;50.742;6.432;2023-04-29T09:01:22;112741.81;;;-145.50;100.00
50226;BME280;36113;50.742;6.432;2023-04-29T09:06:32;112741.81;;;-145.50;100.00
50226;BME280;36113;50.742;6.432;2023-04-29T09:09:01;112741.81;;;-145.50;100.00
50226;BME280;36113;50.742;6.432;2023-04-29T09:11:28;112741.81;;;-145.50;100.00
50226;BME280;36113;50.742;6.432;2023-04-29T09:14:03;112741.81;;;-145.50;100.00
50226;BME280;36113;50.742;6.432;2023-04-29T09:16:28;112741.81;;;-145.50;100.00
50226;BME280;36113;50.742;6.432;2023-04-29T09:18:54;112741.81;;;-145.50;100.00
50226;BME280;36113;50.742;6.432;2023-04-29T09:21:25;112741.81;;;-145.50;100.00
50226;BME280;36113;50.742;6.432;2023-04-29T09:23:56;112741.81;;;-145.50;100.00
50226;BME280;36113;50.742;6.432;2023-04-29T09:26:22;112741.81;;;-145.50;100.00
50226;BME280;36113;50.742;6.432;2023-04-29T09:29:11;112741.81;;;-145.50;100.00
50226;BME280;36113;50.742;6.432;2023-04-29T09:31:38;112741.81;;;-145.50;100.00
50226;BME280;36113;50.742;6.432;2023-04-29T09:34:04;112741.81;;;-145.50;100.00
50226;BME280;36113;50.742;6.432;2023-04-29T09:39:08;112741.81;;;-145.50;99.06
50226;BME280;36113;50.742;6.432;2023-04-29T09:41:39;112741.81;;;-145.50;98.35
50226;BME280;36113;50.742;6.432;2023-04-29T09:44:06;112741.81;;;-145.50;96.68
50226;BME280;36113;50.742;6.432;2023-04-29T09:46:32;112741.81;;;-145.50;96.04
50226;BME280;36113;50.742;6.432;2023-04-29T09:48:59;112741.81;;;-145.50;96.53
50226;BME280;36113;50.742;6.432;2023-04-29T09:51:24;112741.81;;;-145.50;96.43
50226;BME280;36113;50.742;6.432;2023-04-29T09:53:50;112741.81;;;-145.50;96.84
50226;BME280;36113;50.742;6.432;2023-04-29T09:56:15;112741.81;;;-145.50;96.48
50226;BME280;36113;50.742;6.432;2023-04-29T09:58:40;112741.81;;;-145.50;96.77
50226;BME280;36113;50.742;6.432;2023-04-29T10:01:06;112741.81;;;-145.50;96.43
50226;BME280;36113;50.742;6.432;2023-04-29T10:03:37;112741.81;;;-145.50;95.94
50226;BME280;36113;50.742;6.432;2023-04-29T10:06:04;112741.81;;;-145.50;95.98
50226;BME280;36113;50.742;6.432;2023-04-29T10:08:31;112741.81;;;-145.50;95.65
50226;BME280;36113;50.742;6.432;2023-04-29T10:11:00;112741.81;;;-145.50;95.40
50226;BME280;36113;50.742;6.432;2023-04-29T10:13:26;112741.81;;;-145.50;93.74
50226;BME280;36113;50.742;6.432;2023-04-29T10:18:52;112741.81;;;-145.50;92.29
50226;BME280;36113;50.742;6.432;2023-04-29T10:21:20;112741.81;;;-145.50;93.42
50226;BME280;36113;50.742;6.432;2023-04-29T10:23:48;112741.81;;;-145.50;93.40
50226;BME280;36113;50.742;6.432;2023-04-29T10:26:15;112741.81;;;-145.50;92.04
50226;BME280;36113;50.742;6.432;2023-04-29T10:28:42;112741.81;;;-145.50;90.75
50226;BME280;36113;50.742;6.432;2023-04-29T10:31:10;112741.81;;;-145.50;90.36
50226;BME280;36113;50.742;6.432;2023-04-29T10:33:39;112741.81;;;-145.50;90.29
50226;BME280;36113;50.742;6.432;2023-04-29T10:36:06;112741.81;;;-145.50;91.37
50226;BME280;36113;50.742;6.432;2023-04-29T10:38:40;112741.81;;;-145.50;91.05
50226;BME280;36113;50.742;6.432;2023-04-29T10:41:18;112741.81;;;-145.50;91.15
50226;BME280;36113;50.742;6.432;2023-04-29T10:43:44;112741.81;;;-145.50;90.01
50226;BME280;36113;50.742;6.432;2023-04-29T10:46:18;112741.81;;;-145.50;88.56
50226;BME280;36113;50.742;6.432;2023-04-29T10:48:48;112741.81;;;-145.50;87.55
50226;BME280;36113;50.742;6.432;2023-04-29T10:51:27;112741.81;;;-145.50;86.70
50226;BME280;36113;50.742;6.432;2023-04-29T10:56:42;112741.81;;;-145.50;86.21
50226;BME280;36113;50.742;6.432;2023-04-29T10:59:09;112741.81;;;-145.50;85.09
50226;BME280;36113;50.742;6.432;2023-04-29T11:01:50;112741.81;;;-145.50;85.10
50226;BME280;36113;50.742;6.432;2023-04-29T11:04:18;112741.81;;;-145.50;86.20
50226;BME280;36113;50.742;6.432;2023-04-29T11:06:54;112741.81;;;-145.50;86.74
50226;BME280;36113;50.742;6.432;2023-04-29T11:14:24;112741.81;;;-145.50;87.23
50226;BME280;36113;50.742;6.432;2023-04-29T11:16:57;112741.81;;;-145.50;87.60
50226;BME280;36113;50.742;6.432;2023-04-29T11:19:25;112741.81;;;-145.50;87.60
50226;BME280;36113;50.742;6.432;2023-04-29T11:22:05;112741.81;;;-145.50;86.78
50226;BME280;36113;50.742;6.432;2023-04-29T11:24:33;112741.81;;;-145.50;86.40
50226;BME280;36113;50.742;6.432;2023-04-29T11:27:01;112741.81;;;-145.50;88.01
50226;BME280;36113;50.742;6.432;2023-04-29T11:29:30;112741.81;;;-145.50;88.21
50226;BME280;36113;50.742;6.432;2023-04-29T11:32:00;112741.81;;;-145.50;88.11
50226;BME280;36113;50.742;6.432;2023-04-29T11:34:25;112741.81;;;-145.50;89.83
50226;BME280;36113;50.742;6.432;2023-04-29T11:36:52;112741.81;;;-145.50;89.99
50226;BME280;36113;50.742;6.432;2023-04-29T11:39:17;112741.81;;;-145.50;89.58
50226;BME280;36113;50.742;6.432;2023-04-29T11:41:42;112741.81;;;-145.50;89.33
50226;BME280;36113;50.742;6.432;2023-04-29T11:44:08;112741.81;;;-145.50;88.59
50226;BME280;36113;50.742;6.432;2023-04-29T11:46:34;112741.81;;;-145.50;88.13
50226;BME280;36113;50.742;6.432;2023-04-29T11:49:00;112741.81;;;-145.50;88.11
50226;BME280;36113;50.742;6.432;2023-04-29T11:51:26;112741.81;;;-145.50;88.20
50226;BME280;36113;50.742;6.432;2023-04-29T11:53:52;112741.81;;;-145.50;89.41
50226;BME280;36113;50.742;6.432;2023-04-29T11:56:21;112741.81;;;-145.50;90.78
50226;BME280;36113;50.742;6.432;2023-04-29T11:58:52;112741.81;;;-145.50;91.27
50226;BME280;36113;50.742;6.432;2023-04-29T12:01:19;112741.81;;;-145.50;91.25
50226;BME280;36113;50.742;6.432;2023-04-29T12:03:44;112741.81;;;-145.50;91.02
50226;BME280;36113;50.742;6.432;2023-04-29T12:06:12;112741.81;;;-145.50;90.55
50226;BME280;36113;50.742;6.432;2023-04-29T12:08:37;112741.81;;;-145.50;90.85
50226;BME280;36113;50.742;6.432;2023-04-29T12:11:05;112741.81;;;-145.50;91.87
50226;BME280;36113;50.742;6.432;2023-04-29T12:13:32;112741.81;;;-145.50;91.53
50226;BME280;36113;50.742;6.432;2023-04-29T12:16:00;112741.81;;;-145.50;91.47
50226;BME280;36113;50.742;6.432;2023-04-29T12:18:27;112741.81;;;-145.50;91.90
50226;BME280;36113;50.742;6.432;2023-04-29T12:20:53;112741.81;;;-145.50;91.00
50226;BME280;36113;50.742;6.432;2023-04-29T12:23:24;112741.81;;;-145.50;91.24
50226;BME280;36113;50.742;6.432;2023-04-29T12:25:55;112741.81;;;-145.50;92.22
50226;BME280;36113;50.742;6.432;2023-04-29T12:28:21;112741.81;;;-145.50;93.91
50226;BME280;36113;50.742;6.432;2023-04-29T12:30:47;112741.81;;;-145.50;93.40
50226;BME280;36113;50.742;6.432;2023-04-29T12:33:24;112741.81;;;-145.50;93.99
50226;BME280;36113;50.742;6.432;2023-04-29T12:35:51;112741.81;;;-145.50;94.38
50226;BME280;36113;50.742;6.432;2023-04-29T12:38:21;112741.81;;;-145.50;93.56
50226;BME280;36113;50.742;6.432;2023-04-29T12:40:47;112741.81;;;-145.50;94.10
50226;BME280;36113;50.742;6.432;2023-04-29T12:43:12;112741.81;;;-145.50;93.97
50226;BME280;36113;50.742;6.432;2023-04-29T12:45:38;112741.81;;;-145.50;94.49
50226;BME280;36113;50.742;6.432;2023-04-29T12:48:04;112741.81;;;-145.50;95.18
50226;BME280;36113;50.742;6.432;2023-04-29T12:50:36;112741.81;;;-145.50;95.00
50226;BME280;36113;50.742;6.432;2023-04-29T12:53:03;112741.81;;;-145.50;96.07